Time;durP1;ratioP1;P1;durP2;ratioP2;P2;SDS_P1;SDS_P2;PMS_P1;PMS_P2;Temp;Humidity;BMP_temperature;BMP_pressure;BME280_temperature;BME280_humidity;BME280_pressure;Samples;Min_cycle;Max_cycle;Signal;HPM_P1;HPM_P2
2023/10/27 00:00:08;;;;;;;4.83;1.60;;;;;;;18.51;66.74;98163.22;5069664;28;20198;-61
2023/10/27 00:02:38;;;;;;;7.63;1.90;;;;;;;18.50;66.54;98170.16;5054806;28;20732;-61
2023/10/27 00:05:05;;;;;;;6.20;1.87;;;;;;;18.50;67.03;98170.16;5062159;28;20444;-61
2023/10/27 00:07:30;;;;;;;4.00;1.53;;;;;;;18.48;67.08;98170.63;5068419;28;20987;-61
2023/10/27 00:09:56;;;;;;;7.80;2.00;;;;;;;18.49;67.03;98162.84;5069552;28;20424;-61
2023/10/27 00:12:21;;;;;;;4.20;1.70;;;;;;;18.48;66.83;98162.03;5068933;28;20165;-61
2023/10/27 00:14:46;;;;;;;4.50;1.70;;;;;;;18.48;67.17;98166.94;5057037;28;20200;-61
2023/10/27 00:17:12;;;;;;;5.23;2.20;;;;;;;18.47;66.82;98166.13;5065240;28;20187;-61
2023/10/27 00:19:37;;;;;;;7.83;1.90;;;;;;;18.49;66.92;98172.22;5049949;28;20183;-61
2023/10/27 00:22:03;;;;;;;5.40;2.13;;;;;;;18.49;66.74;98172.22;5054353;28;20187;-61
2023/10/27 00:24:28;;;;;;;5.63;2.30;;;;;;;18.47;67.28;98174.69;5067337;28;21031;-61
2023/10/27 00:26:54;;;;;;;3.40;1.60;;;;;;;18.47;67.17;98174.69;5067944;28;20673;-61
2023/10/27 00:29:21;;;;;;;5.50;1.43;;;;;;;18.48;67.13;98172.66;5068110;28;20520;-61
2023/10/27 00:31:46;;;;;;;4.70;1.57;;;;;;;18.46;67.02;98167.38;5066411;28;20468;-61
2023/10/27 00:34:12;;;;;;;4.47;1.53;;;;;;;18.47;67.23;98168.97;5069228;28;20186;-61
2023/10/27 00:36:38;;;;;;;5.33;1.80;;;;;;;18.47;67.10;98168.97;5068581;28;20186;-61
2023/10/27 00:39:04;;;;;;;6.17;1.57;;;;;;;18.46;67.11;98167.38;5056405;28;20441;-61
2023/10/27 00:41:30;;;;;;;6.80;1.70;;;;;;;18.47;67.35;98163.25;5051216;28;20180;-61
2023/10/27 00:43:56;;;;;;;3.70;1.80;;;;;;;18.47;66.83;98162.47;5069487;28;20191;-61
2023/10/27 00:46:22;;;;;;;4.97;1.57;;;;;;;18.46;67.37;98167.38;5060753;28;20442;-61
2023/10/27 00:48:48;;;;;;;8.57;2.40;;;;;;;18.47;67.05;98168.97;5041788;28;20264;-61
2023/10/27 00:51:13;;;;;;;5.20;1.60;;;;;;;18.47;67.13;98173.91;5068387;28;20481;-61
2023/10/27 00:53:38;;;;;;;5.30;1.67;;;;;;;18.46;66.95;98175.94;5062952;28;20199;-61
2023/10/27 00:56:04;;;;;;;4.03;1.60;;;;;;;18.46;67.34;98173.06;5069237;28;20183;-61
2023/10/27 00:58:30;;;;;;;3.47;1.47;;;;;;;18.45;67.11;98173.50;5068821;28;20191;-61
2023/10/27 01:00:55;;;;;;;3.47;1.40;;;;;;;18.44;67.25;98169.84;5051277;28;20187;-61
2023/10/27 01:03:20;;;;;;;4.00;1.67;;;;;;;18.44;67.35;98169.84;5066251;28;20256;-61
2023/10/27 01:05:46;;;;;;;4.57;1.27;;;;;;;18.44;66.97;98167.00;5068243;28;20182;-61
2023/10/27 01:08:11;;;;;;;3.33;1.27;;;;;;;18.44;67.06;98163.31;5067329;28;20186;-61
2023/10/27 01:10:37;;;;;;;4.63;1.17;;;;;;;18.45;67.40;98164.94;5068085;28;20206;-61
2023/10/27 01:13:02;;;;;;;5.23;1.70;;;;;;;18.44;67.19;98152.72;5068166;28;20174;-61
2023/10/27 01:15:30;;;;;;;4.30;1.93;;;;;;;18.42;67.35;98149.47;5064732;28;20207;-61
2023/10/27 01:17:55;;;;;;;4.50;1.67;;;;;;;18.42;67.26;98146.59;5061763;28;20172;-61
2023/10/27 01:20:21;;;;;;;5.37;1.50;;;;;;;18.42;67.22;98148.66;5047922;28;21015;-61
2023/10/27 01:22:47;;;;;;;4.37;2.27;;;;;;;18.43;67.26;98141.72;5053381;28;20194;-62
2023/10/27 01:25:15;;;;;;;2.90;1.00;;;;;;;18.42;67.41;98143.75;5065597;28;20646;-61
2023/10/27 01:27:41;;;;;;;3.87;1.60;;;;;;;18.42;67.43;98143.75;5068958;28;20428;-61
2023/10/27 01:30:08;;;;;;;3.40;1.50;;;;;;;18.42;67.37;98132.31;5069088;28;20496;-61
2023/10/27 01:32:33;;;;;;;3.00;1.10;;;;;;;18.42;67.43;98132.31;5068904;28;20175;-61
2023/10/27 01:34:59;;;;;;;4.27;1.57;;;;;;;18.42;67.37;98126.59;5037166;28;20531;-61
2023/10/27 01:37:24;;;;;;;4.10;1.20;;;;;;;18.41;67.38;98130.72;5068709;28;20175;-61
2023/10/27 01:39:50;;;;;;;4.33;1.43;;;;;;;18.41;67.52;98122.13;5068497;28;20175;-62
2023/10/27 01:42:16;;;;;;;2.60;1.90;;;;;;;18.41;67.59;98121.34;5069249;28;20257;-61
2023/10/27 01:44:41;;;;;;;3.60;1.50;;;;;;;18.44;67.62;98126.19;5067554;28;20417;-61
2023/10/27 01:47:07;;;;;;;4.60;1.20;;;;;;;18.42;67.33;98109.47;5048965;28;20176;-61
2023/10/27 01:49:32;;;;;;;4.47;1.60;;;;;;;18.40;67.17;98109.09;5069678;28;20198;-61
2023/10/27 01:51:58;;;;;;;3.70;1.30;;;;;;;18.39;67.41;98107.50;5071789;28;20198;-61
2023/10/27 01:54:23;;;;;;;3.63;1.50;;;;;;;18.40;67.34;98111.97;5069285;28;20790;-61
2023/10/27 01:56:48;;;;;;;4.77;1.60;;;;;;;18.39;67.56;98098.09;5053157;28;20516;-62
2023/10/27 01:59:14;;;;;;;3.40;1.50;;;;;;;18.40;67.65;98100.53;5072022;28;20229;-61
2023/10/27 02:01:40;;;;;;;3.53;1.40;;;;;;;18.39;67.52;98103.81;5070932;28;20240;-61
2023/10/27 02:04:05;;;;;;;2.27;1.00;;;;;;;18.39;67.73;98092.38;5071613;28;20287;-62
2023/10/27 02:06:31;;;;;;;3.80;1.57;;;;;;;18.39;67.79;98098.91;5066114;28;20630;-61
2023/10/27 02:08:56;;;;;;;3.30;1.53;;;;;;;18.38;67.59;98082.22;5070678;28;20179;-61
2023/10/27 02:11:23;;;;;;;3.73;1.50;;;;;;;18.39;67.44;98076.06;5052367;28;20224;-61
2023/10/27 02:13:49;;;;;;;3.27;1.23;;;;;;;18.40;67.42;98066.25;5071169;28;20964;-61
2023/10/27 02:16:14;;;;;;;2.77;1.10;;;;;;;18.37;67.78;98069.97;5070391;28;20429;-61
2023/10/27 02:18:40;;;;;;;5.07;1.30;;;;;;;18.38;67.46;98068.75;5071550;28;20943;-61
2023/10/27 02:21:05;;;;;;;4.90;1.50;;;;;;;18.37;67.50;98069.16;5071041;28;20578;-62
2023/10/27 02:23:30;;;;;;;3.70;1.67;;;;;;;18.37;67.94;98067.09;5053684;28;20236;-61
2023/10/27 02:25:56;;;;;;;3.40;1.30;;;;;;;18.35;67.43;98052.47;5070514;28;20658;-61
2023/10/27 02:28:21;;;;;;;5.30;1.40;;;;;;;18.38;67.89;98053.66;5066566;28;20556;-61
2023/10/27 02:30:47;;;;;;;4.47;1.43;;;;;;;18.37;67.60;98063.47;5071777;28;20597;-61
2023/10/27 02:33:13;;;;;;;3.10;1.50;;;;;;;18.35;67.64;98058.19;5064912;28;20857;-61
2023/10/27 02:35:38;;;;;;;3.10;1.23;;;;;;;18.36;67.62;98062.63;5058963;28;20179;-62
2023/10/27 02:38:04;;;;;;;4.13;1.40;;;;;;;18.36;67.89;98056.13;5060541;28;20203;-62
2023/10/27 02:40:30;;;;;;;3.10;1.20;;;;;;;18.35;67.68;98058.19;5070732;28;20202;-62
2023/10/27 02:42:56;;;;;;;3.10;1.07;;;;;;;18.35;67.84;98055.31;5071763;28;20650;-62
2023/10/27 02:45:21;;;;;;;3.73;1.33;;;;;;;18.35;67.58;98051.63;5070410;28;20467;-61
2023/10/27 02:47:47;;;;;;;3.33;1.50;;;;;;;18.34;67.67;98050.84;5071422;28;20933;-61
2023/10/27 02:50:13;;;;;;;3.30;1.30;;;;;;;18.34;67.68;98045.13;5071556;28;20676;-61
2023/10/27 02:52:38;;;;;;;2.40;1.10;;;;;;;18.34;67.85;98042.28;5071511;28;20188;-61
2023/10/27 02:55:04;;;;;;;2.80;1.30;;;;;;;18.34;67.76;98038.59;5069330;28;20244;-62
2023/10/27 02:57:29;;;;;;;2.40;1.10;;;;;;;18.33;68.04;98042.72;5071422;28;20179;-61
2023/10/27 02:59:57;;;;;;;3.90;1.33;;;;;;;18.34;67.82;98044.31;5070488;28;20175;-61
2023/10/27 03:02:23;;;;;;;3.60;1.23;;;;;;;18.33;67.76;98048.41;5069091;28;20195;-61
2023/10/27 03:04:49;;;;;;;3.97;1.47;;;;;;;18.35;67.82;98046.75;5045534;28;20481;-62
2023/10/27 03:07:16;;;;;;;3.13;1.20;;;;;;;18.32;67.59;98041.06;5056701;28;20178;-61
2023/10/27 03:09:41;;;;;;;3.80;1.40;;;;;;;18.34;67.90;98056.56;5070281;28;20417;-62
2023/10/27 03:12:07;;;;;;;3.80;1.27;;;;;;;18.33;67.67;98042.72;5069324;28;20938;-61
2023/10/27 03:14:33;;;;;;;2.40;1.20;;;;;;;18.29;68.00;98037.03;5049367;28;20715;-62
2023/10/27 03:16:58;;;;;;;3.07;0.97;;;;;;;18.34;67.92;98044.31;5054191;28;20429;-62
2023/10/27 03:19:23;;;;;;;2.33;1.10;;;;;;;18.32;67.65;98036.19;5069763;28;20238;-62
2023/10/27 03:21:49;;;;;;;3.50;1.10;;;;;;;18.31;67.88;98043.09;5069044;28;20219;-61
2023/10/27 03:24:14;;;;;;;2.40;1.03;;;;;;;18.31;67.80;98048.03;5052466;28;20266;-62
2023/10/27 03:26:40;;;;;;;2.70;1.47;;;;;;;18.31;67.74;98034.53;5070093;28;20176;-62
2023/10/27 03:29:05;;;;;;;2.40;1.27;;;;;;;18.31;67.79;98039.47;5058299;28;20234;-61
2023/10/27 03:31:31;;;;;;;2.57;1.13;;;;;;;18.33;67.67;98037.81;5060206;28;20495;-62
2023/10/27 03:33:56;;;;;;;3.10;1.37;;;;;;;18.31;67.73;98043.09;5069269;28;20555;-62
2023/10/27 03:36:22;;;;;;;2.50;1.10;;;;;;;18.32;67.62;98043.94;5069865;28;20209;-62
2023/10/27 03:38:48;;;;;;;2.23;0.90;;;;;;;18.31;67.84;98039.47;5070441;28;20171;-61
2023/10/27 03:41:13;;;;;;;2.60;1.00;;;;;;;18.31;68.17;98040.25;5069806;28;20421;-62
2023/10/27 03:43:39;;;;;;;2.53;1.10;;;;;;;18.32;67.93;98052.50;5069741;28;20186;-62
2023/10/27 03:46:07;;;;;;;1.77;0.80;;;;;;;18.30;67.64;98038.63;5070212;28;20188;-62
2023/10/27 03:48:34;;;;;;;2.70;1.10;;;;;;;18.32;67.71;98035.34;5066011;28;20175;-62
2023/10/27 03:51:03;;;;;;;3.23;1.40;;;;;;;18.30;67.58;98037.81;5070297;28;20457;-61
2023/10/27 03:53:29;;;;;;;3.17;1.27;;;;;;;18.31;67.69;98045.19;5068189;28;20985;-61
2023/10/27 03:55:54;;;;;;;2.33;1.10;;;;;;;18.33;67.64;98043.53;5069230;28;20429;-62
2023/10/27 03:58:20;;;;;;;2.80;1.10;;;;;;;18.32;67.81;98038.22;5068175;28;20227;-61
2023/10/27 04:00:45;;;;;;;2.30;1.00;;;;;;;18.32;67.88;98036.19;5069334;28;20780;-62
2023/10/27 04:03:11;;;;;;;2.40;1.13;;;;;;;18.33;67.62;98029.25;5068072;28;20209;-61
2023/10/27 04:05:37;;;;;;;2.40;1.00;;;;;;;18.31;67.68;98025.19;5068673;28;20324;-61
2023/10/27 04:08:04;;;;;;;2.50;1.17;;;;;;;18.32;67.72;98027.59;5069053;28;20436;-61
2023/10/27 04:10:37;;;;;;;3.63;1.40;;;;;;;18.30;67.87;98037.81;5069968;28;20190;-62
2023/10/27 04:13:03;;;;;;;2.90;0.97;;;;;;;18.30;67.86;98029.25;5068654;28;20540;-62
2023/10/27 04:15:29;;;;;;;2.90;1.03;;;;;;;18.30;68.07;98032.09;5051944;28;20798;-61
2023/10/27 04:17:54;;;;;;;2.57;1.20;;;;;;;18.30;67.86;98037.81;5069249;28;20452;-61
2023/10/27 04:20:20;;;;;;;2.60;1.23;;;;;;;18.30;67.72;98037.81;5069353;28;20233;-61
2023/10/27 04:22:45;;;;;;;3.60;1.30;;;;;;;18.30;67.85;98030.06;5071347;28;20187;-62
2023/10/27 04:25:12;;;;;;;2.80;1.17;;;;;;;18.30;67.76;98038.63;5069742;28;20189;-62
2023/10/27 04:27:38;;;;;;;2.30;0.97;;;;;;;18.30;67.55;98041.50;5069490;28;20260;-61
2023/10/27 04:30:07;;;;;;;2.40;0.97;;;;;;;18.29;67.91;98048.47;5069588;28;20519;-61
2023/10/27 04:32:32;;;;;;;3.13;1.20;;;;;;;18.32;67.63;98032.50;5066304;28;20191;-62
2023/10/27 04:34:58;;;;;;;2.63;1.40;;;;;;;18.32;68.07;98043.94;5058706;28;21118;-61
2023/10/27 04:37:23;;;;;;;2.00;1.20;;;;;;;18.31;67.52;98051.69;5060796;28;20179;-61
2023/10/27 04:39:50;;;;;;;7.53;1.13;;;;;;;18.31;67.84;98059.47;5069566;28;20190;-61
2023/10/27 04:42:15;;;;;;;2.40;1.07;;;;;;;18.33;67.72;98071.28;5068556;28;20229;-61
2023/10/27 04:44:41;;;;;;;2.70;1.00;;;;;;;18.33;67.51;98072.09;5069229;28;20437;-61
2023/10/27 04:47:06;;;;;;;2.33;0.80;;;;;;;18.31;67.90;98073.75;5069150;28;20653;-61
2023/10/27 04:49:31;;;;;;;2.80;0.80;;;;;;;18.30;67.75;98070.06;5067201;28;20601;-62
2023/10/27 04:51:57;;;;;;;2.70;0.90;;;;;;;18.29;68.13;98079.88;5067709;28;20796;-62
2023/10/27 04:54:22;;;;;;;2.40;1.00;;;;;;;18.32;67.87;98090.44;5063829;28;20560;-62
2023/10/27 04:56:48;;;;;;;1.83;0.97;;;;;;;18.31;67.90;98085.16;5067638;28;20187;-62
2023/10/27 04:59:13;;;;;;;3.80;1.23;;;;;;;18.31;67.85;98083.09;5066973;28;20160;-61
2023/10/27 05:01:39;;;;;;;2.27;1.23;;;;;;;18.33;67.72;98083.53;5066892;28;20186;-61
2023/10/27 05:04:04;;;;;;;3.20;1.23;;;;;;;18.31;68.09;98088.03;5068136;28;20167;-61
2023/10/27 05:06:30;;;;;;;2.43;1.10;;;;;;;18.32;67.61;98075.34;5069234;28;20171;-61
2023/10/27 05:08:56;;;;;;;2.13;0.90;;;;;;;18.29;67.92;98088.44;5067321;28;20179;-61
2023/10/27 05:11:21;;;;;;;2.30;1.20;;;;;;;18.31;67.63;98091.66;5045774;28;20971;-61
2023/10/27 05:13:48;;;;;;;5.43;1.10;;;;;;;18.31;67.91;98083.09;5068277;28;20183;-62
2023/10/27 05:16:13;;;;;;;2.20;1.07;;;;;;;18.31;67.78;98108.81;5068395;28;20593;-61
2023/10/27 05:18:38;;;;;;;2.73;1.00;;;;;;;18.31;67.74;98102.31;5064226;28;20433;-61
2023/10/27 05:21:04;;;;;;;2.73;1.33;;;;;;;18.32;68.08;98112.47;5057039;28;20227;-62
2023/10/27 05:23:29;;;;;;;2.60;1.17;;;;;;;18.33;67.77;98117.78;5063374;28;20178;-61
2023/10/27 05:25:55;;;;;;;1.80;1.10;;;;;;;18.33;67.73;98116.97;5071140;28;20175;-61
2023/10/27 05:28:20;;;;;;;2.30;0.93;;;;;;;18.34;67.75;98118.59;5071904;28;20190;-61
2023/10/27 05:30:50;;;;;;;2.10;1.13;;;;;;;18.32;67.91;98119.00;5061737;28;20218;-61
2023/10/27 05:33:16;;;;;;;2.10;1.00;;;;;;;18.32;67.74;98115.34;5071316;28;20198;-61
2023/10/27 05:35:41;;;;;;;2.27;1.03;;;;;;;18.33;67.66;98122.69;5056316;28;20426;-61
2023/10/27 05:38:06;;;;;;;2.20;1.20;;;;;;;18.33;67.67;98125.53;5063110;28;20237;-61
2023/10/27 05:40:33;;;;;;;2.80;1.23;;;;;;;18.33;67.67;98132.09;5071825;28;20191;-61
2023/10/27 05:42:59;;;;;;;2.27;1.30;;;;;;;18.36;67.96;98130.41;5067006;28;20179;-62
2023/10/27 05:45:24;;;;;;;2.87;1.20;;;;;;;18.34;67.45;98127.16;5058614;28;21213;-62
2023/10/27 05:47:50;;;;;;;3.07;1.60;;;;;;;18.43;67.36;98119.69;5066481;28;20191;-63
2023/10/27 05:50:15;;;;;;;8.30;2.47;;;;;;;18.63;69.04;98122.59;5068382;28;20207;-62
2023/10/27 05:52:41;;;;;;;12.47;4.17;;;;;;;18.74;69.49;98121.19;5070933;28;20210;-62
2023/10/27 05:55:07;;;;;;;7.50;2.80;;;;;;;18.68;68.64;98128.63;5070501;28;20187;-62
2023/10/27 05:57:32;;;;;;;7.67;2.53;;;;;;;18.58;67.54;98138.19;5067156;28;20190;-62
2023/10/27 05:59:58;;;;;;;7.10;2.70;;;;;;;18.62;67.71;98141.00;5064891;28;20189;-62
2023/10/27 06:02:23;;;;;;;6.43;2.03;;;;;;;18.62;67.30;98150.34;5072356;28;20261;-62
2023/10/27 06:04:49;;;;;;;11.20;2.87;;;;;;;18.57;67.46;98150.06;5072101;28;20277;-62
2023/10/27 06:07:18;;;;;;;5.97;1.57;;;;;;;18.55;67.53;98146.81;5070716;28;20245;-63
2023/10/27 06:09:43;;;;;;;7.03;1.90;;;;;;;18.56;67.54;98163.53;5068873;28;20240;-62
2023/10/27 06:12:09;;;;;;;8.90;2.00;;;;;;;18.62;67.03;98164.66;5071634;28;20448;-64
2023/10/27 06:14:34;;;;;;;4.80;1.57;;;;;;;18.62;67.63;98176.06;5069886;28;20218;-63
2023/10/27 06:17:00;;;;;;;3.63;1.53;;;;;;;18.66;67.38;98173.19;5071396;28;20606;-63
2023/10/27 06:19:25;;;;;;;6.07;1.97;;;;;;;18.64;67.58;98179.31;5070105;28;20179;-63
2023/10/27 06:21:51;;;;;;;6.70;1.87;;;;;;;18.63;67.23;98186.28;5034926;28;20281;-62
2023/10/27 06:24:17;;;;;;;2.70;1.20;;;;;;;18.66;67.47;98184.63;5051309;28;20627;-63
2023/10/27 06:26:42;;;;;;;7.43;2.23;;;;;;;18.66;69.52;98190.34;5057717;28;20442;-63
2023/10/27 06:29:08;;;;;;;3.87;1.60;;;;;;;18.73;67.76;98193.06;5040170;28;20183;-63
2023/10/27 06:31:33;;;;;;;8.40;1.70;;;;;;;18.72;68.96;98192.25;5045071;28;20226;-64
2023/10/27 06:33:59;;;;;;;5.20;1.43;;;;;;;18.70;68.42;98197.59;5033018;28;20246;-64
2023/10/27 06:36:25;;;;;;;3.90;1.87;;;;;;;18.77;68.95;98194.63;5051885;28;20191;-69
2023/10/27 06:38:50;;;;;;;6.63;1.43;;;;;;;18.78;68.06;98201.97;5017266;28;20191;-63
2023/10/27 06:41:16;;;;;;;8.90;1.67;;;;;;;18.76;68.16;98210.16;5039841;28;20913;-63
2023/10/27 06:43:42;;;;;;;6.90;2.23;;;;;;;18.76;68.43;98212.22;5045935;28;20179;-64
2023/10/27 06:46:07;;;;;;;8.00;1.90;;;;;;;18.75;68.30;98214.25;5029160;28;20196;-64
2023/10/27 06:48:33;;;;;;;5.60;1.80;;;;;;;18.78;68.47;98229.72;5037225;28;21161;-63
2023/10/27 06:50:58;;;;;;;6.70;1.40;;;;;;;18.78;68.11;98219.13;5037232;28;20210;-63
2023/10/27 06:53:24;;;;;;;11.47;2.47;;;;;;;18.72;67.96;98226.53;5037323;28;20184;-63
2023/10/27 06:55:49;;;;;;;6.10;1.67;;;;;;;18.66;68.01;98227.50;5039126;28;20180;-63
2023/10/27 06:58:15;;;;;;;8.50;1.83;;;;;;;18.64;67.79;98236.50;5039680;28;20188;-63
2023/10/27 07:00:40;;;;;;;9.03;2.43;;;;;;;18.68;69.33;98242.16;5014308;28;20185;-63
2023/10/27 07:03:06;;;;;;;10.60;2.03;;;;;;;18.73;68.79;98224.50;5034987;28;20655;-64
2023/10/27 07:05:31;;;;;;;12.33;2.40;;;;;;;18.78;68.50;98229.72;5037030;28;20710;-63
2023/10/27 07:07:57;;;;;;;8.60;1.97;;;;;;;18.78;68.39;98244.84;5033623;28;20204;-64
2023/10/27 07:10:22;;;;;;;9.60;1.90;;;;;;;18.77;68.54;98245.28;5037953;28;20191;-64
2023/10/27 07:12:48;;;;;;;14.97;1.60;;;;;;;18.76;68.16;98252.25;5021308;28;20191;-65
2023/10/27 07:15:13;;;;;;;6.40;1.90;;;;;;;18.76;68.70;98244.47;5030367;28;20204;-63
2023/10/27 07:17:39;;;;;;;14.07;2.57;;;;;;;18.79;68.29;98248.50;5041344;28;20187;-64
2023/10/27 07:20:06;;;;;;;5.87;1.70;;;;;;;18.74;68.11;98263.28;5053653;28;20223;-63
2023/10/27 07:22:31;;;;;;;4.20;1.47;;;;;;;18.71;68.13;98264.94;5069748;28;20433;-63
2023/10/27 07:24:56;;;;;;;9.67;2.37;;;;;;;18.68;67.86;98276.44;5069426;28;20448;-63
2023/10/27 07:27:22;;;;;;;13.30;1.90;;;;;;;18.63;67.94;98291.22;5067309;28;20186;-63
2023/10/27 07:29:47;;;;;;;7.43;2.20;;;;;;;18.64;68.80;98275.69;5068541;28;20222;-63
2023/10/27 07:32:13;;;;;;;7.60;1.43;;;;;;;18.59;68.44;98284.72;5064799;28;20191;-64
2023/10/27 07:34:39;;;;;;;9.03;1.80;;;;;;;18.59;68.28;98291.28;5062800;28;20187;-63
2023/10/27 07:37:04;;;;;;;6.97;1.40;;;;;;;18.55;68.46;98292.53;5063838;28;20236;-63
2023/10/27 07:39:30;;;;;;;6.87;2.00;;;;;;;18.51;68.09;98311.81;5046735;28;20341;-63
2023/10/27 07:41:56;;;;;;;7.27;1.60;;;;;;;18.49;67.43;98295.09;5065153;28;20179;-63
2023/10/27 07:44:21;;;;;;;6.60;1.33;;;;;;;18.53;67.53;98301.56;5067096;28;20179;-62
2023/10/27 07:46:47;;;;;;;5.60;1.90;;;;;;;18.57;67.10;98310.09;5064887;28;20513;-62
2023/10/27 07:49:12;;;;;;;6.13;1.77;;;;;;;18.57;67.50;98312.94;5066221;28;20183;-63
2023/10/27 07:51:38;;;;;;;9.17;2.00;;;;;;;18.59;67.57;98314.13;5067814;28;20512;-62
2023/10/27 07:54:04;;;;;;;4.30;1.50;;;;;;;18.59;67.66;98319.84;5068740;28;20187;-62
2023/10/27 07:56:30;;;;;;;5.70;1.50;;;;;;;18.59;67.36;98313.31;5063958;28;20936;-62
2023/10/27 07:58:55;;;;;;;7.73;1.50;;;;;;;18.60;67.79;98318.59;5068968;28;20175;-63
2023/10/27 08:01:21;;;;;;;3.60;1.30;;;;;;;18.61;67.42;98325.94;5066908;28;20175;-63
2023/10/27 08:03:46;;;;;;;5.77;1.50;;;;;;;18.62;67.80;98329.63;5068244;28;20217;-63
2023/10/27 08:06:12;;;;;;;3.50;1.33;;;;;;;18.60;67.90;98324.31;5067427;28;20171;-62
2023/10/27 08:08:37;;;;;;;7.50;1.60;;;;;;;18.58;68.15;98329.66;5068318;28;20187;-63
2023/10/27 08:11:04;;;;;;;3.50;1.10;;;;;;;18.60;67.90;98327.19;5068592;28;20202;-63
2023/10/27 08:13:30;;;;;;;4.70;1.17;;;;;;;18.59;67.71;98331.28;5068728;28;20504;-63
2023/10/27 08:15:56;;;;;;;10.03;1.57;;;;;;;18.60;67.56;98334.94;5067234;28;20456;-63
2023/10/27 08:18:21;;;;;;;5.80;1.40;;;;;;;18.59;68.03;98324.75;5049862;28;20179;-63
2023/10/27 08:20:48;;;;;;;8.00;1.93;;;;;;;18.58;68.27;98329.66;5049529;28;20215;-63
2023/10/27 08:23:13;;;;;;;5.33;1.80;;;;;;;18.57;68.05;98341.53;5066972;28;20187;-63
2023/10/27 08:25:38;;;;;;;3.60;1.00;;;;;;;18.57;68.06;98333.75;5068358;28;21183;-63
2023/10/27 08:28:04;;;;;;;6.97;1.30;;;;;;;18.59;68.23;98336.19;5067608;28;20175;-62
2023/10/27 08:30:30;;;;;;;6.27;1.33;;;;;;;18.57;68.08;98333.75;5064142;28;20196;-62
2023/10/27 08:32:56;;;;;;;3.83;1.40;;;;;;;18.59;68.09;98339.84;5064863;28;20430;-62
2023/10/27 08:35:21;;;;;;;8.20;1.50;;;;;;;18.59;68.62;98337.00;5067130;28;20167;-62
2023/10/27 08:37:47;;;;;;;6.20;1.37;;;;;;;18.57;68.40;98332.94;5066923;28;20178;-62
2023/10/27 08:40:12;;;;;;;4.33;1.60;;;;;;;18.57;68.51;98333.75;5048559;28;20183;-62
2023/10/27 08:42:42;;;;;;;8.10;1.50;;;;;;;18.58;68.37;98338.25;5066704;28;20183;-62
2023/10/27 08:45:08;;;;;;;5.23;2.10;;;;;;;18.59;68.18;98337.00;5067282;28;20175;-62
2023/10/27 08:47:34;;;;;;;3.73;1.00;;;;;;;18.57;68.38;98339.47;5046020;28;20472;-62
2023/10/27 08:50:02;;;;;;;3.50;1.20;;;;;;;18.57;68.50;98348.03;5069469;28;20227;-61
2023/10/27 08:52:28;;;;;;;6.60;1.70;;;;;;;18.57;68.55;98348.03;5069211;28;20981;-62
2023/10/27 08:54:53;;;;;;;3.73;1.47;;;;;;;18.59;68.08;98354.16;5028589;28;20438;-62
2023/10/27 08:57:19;;;;;;;6.57;1.53;;;;;;;18.61;68.38;98351.66;5046221;28;20238;-62
2023/10/27 08:59:44;;;;;;;3.17;1.30;;;;;;;18.62;68.18;98356.13;5047912;28;20172;-62
2023/10/27 09:02:10;;;;;;;4.83;2.13;;;;;;;18.59;68.37;98365.56;5047955;28;20164;-63
2023/10/27 09:04:42;;;;;;;4.70;1.57;;;;;;;18.59;68.46;98373.31;5064654;28;20224;-62
2023/10/27 09:07:07;;;;;;;3.53;1.60;;;;;;;18.60;68.54;98372.09;5048420;28;20561;-62
2023/10/27 09:09:33;;;;;;;5.70;1.60;;;;;;;18.61;68.82;98365.94;5067789;28;20444;-62
2023/10/27 09:11:58;;;;;;;3.20;1.53;;;;;;;18.61;68.40;98371.66;5033212;28;20277;-63
2023/10/27 09:14:31;;;;;;;6.10;1.20;;;;;;;18.60;68.46;98369.22;5067670;28;20206;-63
2023/10/27 09:17:07;;;;;;;2.83;1.00;;;;;;;18.62;68.20;98370.41;5065787;28;20237;-63
2023/10/27 09:19:33;;;;;;;4.27;1.20;;;;;;;18.60;68.55;98372.91;5067498;28;20412;-63
2023/10/27 09:22:00;;;;;;;3.10;1.00;;;;;;;18.61;68.47;98380.22;5049119;28;20773;-63
2023/10/27 09:24:26;;;;;;;4.53;1.40;;;;;;;18.61;68.49;98390.88;5048113;28;20187;-63
2023/10/27 09:26:53;;;;;;;4.00;1.43;;;;;;;18.60;68.32;98377.81;5066581;28;20436;-63
2023/10/27 09:29:18;;;;;;;3.00;1.03;;;;;;;18.62;68.48;98384.72;5048902;28;21110;-63
2023/10/27 09:31:44;;;;;;;6.33;1.13;;;;;;;18.62;68.47;98392.50;5048028;28;20453;-62
2023/10/27 09:34:20;;;;;;;5.50;1.27;;;;;;;18.63;68.34;98392.06;5054035;28;20195;-63
2023/10/27 09:36:47;;;;;;;4.07;1.30;;;;;;;18.64;68.22;98399.41;5049139;28;20195;-63
2023/10/27 09:39:17;;;;;;;4.03;1.67;;;;;;;18.63;68.35;98406.34;5041788;28;20969;-63
2023/10/27 09:41:47;;;;;;;2.60;1.17;;;;;;;18.62;68.67;98403.94;5053844;28;20916;-62
2023/10/27 09:44:18;;;;;;;4.13;1.10;;;;;;;18.64;68.34;98416.53;5047102;28;20426;-62
2023/10/27 09:46:50;;;;;;;4.77;1.33;;;;;;;18.63;68.36;98406.34;5059778;28;20875;-62
2023/10/27 09:49:16;;;;;;;5.27;1.30;;;;;;;18.63;68.36;98412.06;5047937;28;20438;-62
2023/10/27 09:51:41;;;;;;;2.53;1.10;;;;;;;18.64;68.41;98413.69;5044016;28;20839;-62
2023/10/27 09:54:07;;;;;;;4.03;1.60;;;;;;;18.63;68.43;98414.94;5048178;28;20438;-62
2023/10/27 09:56:32;;;;;;;3.30;1.07;;;;;;;18.62;68.41;98410.44;5054300;28;20559;-62
2023/10/27 09:59:00;;;;;;;2.73;1.03;;;;;;;18.62;68.52;98427.56;5026027;28;20183;-63
2023/10/27 10:01:26;;;;;;;3.67;1.10;;;;;;;18.64;68.31;98424.31;5054397;28;20179;-61
2023/10/27 10:03:52;;;;;;;8.23;1.10;;;;;;;18.62;68.53;98416.16;5046731;28;20426;-61
2023/10/27 10:06:23;;;;;;;3.23;1.03;;;;;;;18.63;68.35;98423.50;5047335;28;20425;-60
2023/10/27 10:09:11;;;;;;;2.60;0.80;;;;;;;18.65;68.18;98426.75;5047305;28;20164;-61
2023/10/27 10:11:57;;;;;;;3.77;1.00;;;;;;;18.65;68.34;98423.88;5065582;28;20809;-61
2023/10/27 10:14:40;;;;;;;6.30;1.30;;;;;;;18.64;68.35;98425.13;5047196;28;20541;-61
2023/10/27 10:17:06;;;;;;;4.03;1.17;;;;;;;18.65;68.72;98420.19;5050015;28;20833;-60
2023/10/27 10:19:50;;;;;;;4.03;1.20;;;;;;;18.64;68.39;98419.41;5053120;28;20441;-60
2023/10/27 10:22:37;;;;;;;5.10;1.10;;;;;;;18.66;68.30;98414.06;5050638;28;20418;-61
2023/10/27 10:25:14;;;;;;;2.60;1.07;;;;;;;18.64;68.28;98413.69;5050260;28;20410;-60
2023/10/27 10:28:08;;;;;;;2.80;1.20;;;;;;;18.64;68.33;98413.69;5049490;28;20468;-61
2023/10/27 10:30:46;;;;;;;4.93;1.00;;;;;;;18.65;68.29;98414.47;5066518;28;20468;-61
2023/10/27 10:33:23;;;;;;;3.60;1.10;;;;;;;18.64;68.49;98419.41;5055350;28;20545;-60
2023/10/27 10:35:49;;;;;;;1.77;1.00;;;;;;;18.64;68.42;98424.31;5049863;28;20437;-61
2023/10/27 10:38:23;;;;;;;5.13;1.30;;;;;;;18.65;68.74;98425.91;5054261;28;20429;-62
2023/10/27 10:40:52;;;;;;;4.03;1.30;;;;;;;18.67;68.28;98423.47;5057718;28;20424;-61
2023/10/27 10:43:28;;;;;;;3.47;1.40;;;;;;;18.66;68.39;98416.91;5049768;28;20426;-61
2023/10/27 10:45:58;;;;;;;3.27;1.07;;;;;;;18.65;68.28;98426.75;5049503;28;21188;-61
2023/10/27 10:48:24;;;;;;;2.93;1.10;;;;;;;18.65;68.14;98418.16;5061508;28;20831;-61
2023/10/27 10:50:50;;;;;;;6.10;1.60;;;;;;;18.64;68.22;98425.13;5057924;28;20465;-60
2023/10/27 10:53:17;;;;;;;3.23;1.10;;;;;;;18.64;68.31;98424.31;5057725;28;20835;-62
2023/10/27 10:55:45;;;;;;;5.70;1.10;;;;;;;18.67;68.33;98435.69;5066383;28;20184;-62
2023/10/27 10:58:10;;;;;;;2.40;1.17;;;;;;;18.64;68.20;98435.72;5050017;28;20418;-62
2023/10/27 11:00:36;;;;;;;2.70;0.90;;;;;;;18.65;68.40;98431.63;5064384;28;20885;-61
2023/10/27 11:03:07;;;;;;;5.03;1.13;;;;;;;18.66;68.28;98439.78;5069075;28;20171;-61
2023/10/27 11:05:32;;;;;;;2.83;1.13;;;;;;;18.67;67.94;98423.47;5052401;28;20197;-60
2023/10/27 11:07:58;;;;;;;2.93;1.20;;;;;;;18.67;68.47;98427.09;5061008;28;20430;-62
2023/10/27 11:10:24;;;;;;;2.77;1.27;;;;;;;18.68;68.24;98428.75;5047691;28;20186;-61
2023/10/27 11:12:49;;;;;;;3.70;1.27;;;;;;;18.67;68.18;98427.09;5069463;28;20214;-61
2023/10/27 11:15:48;;;;;;;2.43;0.90;;;;;;;18.67;68.16;98435.69;5060323;28;20231;-62
2023/10/27 11:18:14;;;;;;;5.63;1.00;;;;;;;18.67;68.41;98429.97;5030617;28;20183;-62
2023/10/27 11:20:40;;;;;;;4.23;1.40;;;;;;;18.66;68.45;98434.06;5043507;28;20465;-62
2023/10/27 11:23:12;;;;;;;2.53;0.80;;;;;;;18.68;68.30;98431.63;5042193;28;20425;-61
2023/10/27 11:25:41;;;;;;;2.33;1.00;;;;;;;18.68;68.23;98430.78;5044418;28;20283;-61
2023/10/27 11:28:29;;;;;;;2.63;0.83;;;;;;;18.68;68.31;98439.38;5030362;28;20517;-62
2023/10/27 11:30:59;;;;;;;2.03;1.00;;;;;;;18.68;68.17;98445.91;5063247;28;20464;-61